sensor_id;sensor_type;location;lat;lon;timestamp;pressure;altitude;pressure_sealevel;temperature;humidity
8569;BME280;4322;51.104;-4.162;2022-09-03T00:00:03;102337.03;;;19.02;100.00
8569;BME280;4322;51.104;-4.162;2022-09-03T00:02:37;102346.84;;;19.00;100.00
8569;BME280;4322;51.104;-4.162;2022-09-03T00:05:11;102366.19;;;19.01;100.00
8569;BME280;4322;51.104;-4.162;2022-09-03T00:07:48;102362.63;;;19.02;100.00
8569;BME280;4322;51.104;-4.162;2022-09-03T00:10:27;102377.47;;;19.05;100.00
8569;BME280;4322;51.104;-4.162;2022-09-03T00:12:59;102371.22;;;19.06;100.00
8569;BME280;4322;51.104;-4.162;2022-09-03T00:15:31;102369.53;;;19.05;100.00
8569;BME280;4322;51.104;-4.162;2022-09-03T00:18:04;102369.53;;;19.05;100.00
8569;BME280;4322;51.104;-4.162;2022-09-03T00:20:38;102383.50;;;19.07;100.00
8569;BME280;4322;51.104;-4.162;2022-09-03T00:23:11;102380.84;;;19.07;100.00
8569;BME280;4322;51.104;-4.162;2022-09-03T00:25:44;102387.91;;;19.06;100.00
8569;BME280;4322;51.104;-4.162;2022-09-03T00:28:18;102385.38;;;19.05;100.00
8569;BME280;4322;51.104;-4.162;2022-09-03T00:31:01;102396.88;;;19.03;100.00
8569;BME280;4322;51.104;-4.162;2022-09-03T00:33:33;102389.88;;;19.02;100.00
8569;BME280;4322;51.104;-4.162;2022-09-03T00:36:10;102396.03;;;19.03;100.00
8569;BME280;4322;51.104;-4.162;2022-09-03T00:38:41;102404.06;;;19.01;100.00
8569;BME280;4322;51.104;-4.162;2022-09-03T00:41:18;102406.78;;;19.00;100.00
8569;BME280;4322;51.104;-4.162;2022-09-03T00:44:01;102397.16;;;18.99;100.00
8569;BME280;4322;51.104;-4.162;2022-09-03T00:46:39;102391.94;;;18.97;100.00
8569;BME280;4322;51.104;-4.162;2022-09-03T00:49:24;102403.38;;;18.98;100.00
8569;BME280;4322;51.104;-4.162;2022-09-03T00:51:59;102407.81;;;18.97;100.00
8569;BME280;4322;51.104;-4.162;2022-09-03T00:54:39;102406.03;;;18.98;100.00
8569;BME280;4322;51.104;-4.162;2022-09-03T00:57:20;102417.34;;;19.00;100.00
8569;BME280;4322;51.104;-4.162;2022-09-03T00:59:58;102419.16;;;18.99;100.00
8569;BME280;4322;51.104;-4.162;2022-09-03T01:02:39;102425.38;;;18.98;100.00
8569;BME280;4322;51.104;-4.162;2022-09-03T01:05:23;102426.22;;;18.99;100.00
8569;BME280;4322;51.104;-4.162;2022-09-03T01:08:00;102429.81;;;18.98;100.00
8569;BME280;4322;51.104;-4.162;2022-09-03T01:10:39;102420.09;;;18.98;100.00
8569;BME280;4322;51.104;-4.162;2022-09-03T01:13:16;102423.66;;;18.97;100.00
8569;BME280;4322;51.104;-4.162;2022-09-03T01:15:55;102426.41;;;18.96;100.00
8569;BME280;4322;51.104;-4.162;2022-09-03T01:18:34;102425.56;;;18.95;100.00
8569;BME280;4322;51.104;-4.162;2022-09-03T01:21:20;102422.81;;;18.97;100.00
8569;BME280;4322;51.104;-4.162;2022-09-03T01:24:25;102422.81;;;18.97;100.00
8569;BME280;4322;51.104;-4.162;2022-09-03T01:27:14;102425.56;;;18.95;100.00
8569;BME280;4322;51.104;-4.162;2022-09-03T01:29:50;102423.94;;;18.93;100.00
8569;BME280;4322;51.104;-4.162;2022-09-03T01:32:28;102422.31;;;18.90;100.00
8569;BME280;4322;51.104;-4.162;2022-09-03T01:35:04;102417.38;;;18.84;100.00
8569;BME280;4322;51.104;-4.162;2022-09-03T01:37:45;102415.09;;;18.78;100.00
8569;BME280;4322;51.104;-4.162;2022-09-03T01:40:26;102414.50;;;18.73;100.00
8569;BME280;4322;51.104;-4.162;2022-09-03T01:43:14;102412.03;;;18.70;100.00
8569;BME280;4322;51.104;-4.162;2022-09-03T01:45:52;102415.69;;;18.68;100.00
8569;BME280;4322;51.104;-4.162;2022-09-03T01:48:35;102413.06;;;18.68;100.00
8569;BME280;4322;51.104;-4.162;2022-09-03T01:51:16;102414.09;;;18.65;100.00
8569;BME280;4322;51.104;-4.162;2022-09-03T01:54:09;102413.22;;;18.65;100.00
8569;BME280;4322;51.104;-4.162;2022-09-03T01:57:07;102417.69;;;18.64;100.00
8569;BME280;4322;51.104;-4.162;2022-09-03T02:00:05;102408.97;;;18.62;100.00
8569;BME280;4322;51.104;-4.162;2022-09-03T02:02:35;102409.94;;;18.61;100.00
8569;BME280;4322;51.104;-4.162;2022-09-03T02:05:07;102414.25;;;18.62;100.00
8569;BME280;4322;51.104;-4.162;2022-09-03T02:07:37;102415.13;;;18.63;100.00
8569;BME280;4322;51.104;-4.162;2022-09-03T02:10:08;102418.63;;;18.63;100.00
8569;BME280;4322;51.104;-4.162;2022-09-03T02:12:39;102417.69;;;18.64;100.00
8569;BME280;4322;51.104;-4.162;2022-09-03T02:15:11;102411.63;;;18.62;100.00
8569;BME280;4322;51.104;-4.162;2022-09-03T02:17:43;102417.91;;;18.60;100.00
8569;BME280;4322;51.104;-4.162;2022-09-03T02:20:16;102413.66;;;18.57;100.00
8569;BME280;4322;51.104;-4.162;2022-09-03T02:22:47;102411.19;;;18.54;100.00
8569;BME280;4322;51.104;-4.162;2022-09-03T02:25:15;102404.22;;;18.53;100.00
8569;BME280;4322;51.104;-4.162;2022-09-03T02:27:44;102426.28;;;18.52;100.00
8569;BME280;4322;51.104;-4.162;2022-09-03T02:30:12;102424.50;;;18.53;100.00
8569;BME280;4322;51.104;-4.162;2022-09-03T02:32:42;102420.16;;;18.52;100.00
8569;BME280;4322;51.104;-4.162;2022-09-03T02:35:10;102409.69;;;18.50;100.00
8569;BME280;4322;51.104;-4.162;2022-09-03T02:37:39;102416.75;;;18.50;100.00
8569;BME280;4322;51.104;-4.162;2022-09-03T02:40:08;102418.34;;;18.52;100.00
8569;BME280;4322;51.104;-4.162;2022-09-03T02:42:36;102421.75;;;18.54;100.00
8569;BME280;4322;51.104;-4.162;2022-09-03T02:45:10;102423.47;;;18.55;100.00
8569;BME280;4322;51.104;-4.162;2022-09-03T02:47:43;102428.66;;;18.57;100.00
8569;BME280;4322;51.104;-4.162;2022-09-03T02:50:14;102421.59;;;18.57;100.00
8569;BME280;4322;51.104;-4.162;2022-09-03T02:52:43;102431.22;;;18.58;100.00
8569;BME280;4322;51.104;-4.162;2022-09-03T02:55:11;102433.69;;;18.61;100.00
8569;BME280;4322;51.104;-4.162;2022-09-03T02:57:40;102431.06;;;18.61;100.00
8569;BME280;4322;51.104;-4.162;2022-09-03T03:00:08;102427.47;;;18.62;100.00
8569;BME280;4322;51.104;-4.162;2022-09-03T03:02:37;102427.47;;;18.62;100.00
8569;BME280;4322;51.104;-4.162;2022-09-03T03:05:08;102432.75;;;18.62;100.00
8569;BME280;4322;51.104;-4.162;2022-09-03T03:07:40;102432.75;;;18.62;100.00
8569;BME280;4322;51.104;-4.162;2022-09-03T03:10:09;102426.59;;;18.62;100.00
8569;BME280;4322;51.104;-4.162;2022-09-03T03:12:38;102433.69;;;18.61;100.00
8569;BME280;4322;51.104;-4.162;2022-09-03T03:15:06;102431.13;;;18.60;100.00
8569;BME280;4322;51.104;-4.162;2022-09-03T03:17:34;102429.34;;;18.60;100.00
8569;BME280;4322;51.104;-4.162;2022-09-03T03:20:03;102428.59;;;18.58;100.00
8569;BME280;4322;51.104;-4.162;2022-09-03T03:22:32;102418.09;;;18.57;100.00
8569;BME280;4322;51.104;-4.162;2022-09-03T03:25:00;102414.69;;;18.55;100.00
8569;BME280;4322;51.104;-4.162;2022-09-03T03:27:29;102422.72;;;18.53;100.00
8569;BME280;4322;51.104;-4.162;2022-09-03T03:29:57;102417.50;;;18.52;100.00
8569;BME280;4322;51.104;-4.162;2022-09-03T03:32:25;102409.69;;;18.50;100.00
8569;BME280;4322;51.104;-4.162;2022-09-03T03:34:53;102415.88;;;18.49;100.00
8569;BME280;4322;51.104;-4.162;2022-09-03T03:37:21;102405.47;;;18.46;100.00
8569;BME280;4322;51.104;-4.162;2022-09-03T03:39:51;102408.28;;;18.43;100.00
8569;BME280;4322;51.104;-4.162;2022-09-03T03:42:19;102395.22;;;18.40;100.00
8569;BME280;4322;51.104;-4.162;2022-09-03T03:44:47;102403.34;;;18.37;100.00
8569;BME280;4322;51.104;-4.162;2022-09-03T03:47:15;102395.59;;;18.34;100.00
8569;BME280;4322;51.104;-4.162;2022-09-03T03:49:43;102393.88;;;18.33;100.00
8569;BME280;4322;51.104;-4.162;2022-09-03T03:52:11;102382.63;;;18.29;100.00
8569;BME280;4322;51.104;-4.162;2022-09-03T03:54:39;102385.28;;;18.29;100.00
8569;BME280;4322;51.104;-4.162;2022-09-03T03:57:09;102377.44;;;18.28;100.00
8569;BME280;4322;51.104;-4.162;2022-09-03T03:59:40;102374.81;;;18.28;100.00
8569;BME280;4322;51.104;-4.162;2022-09-03T04:02:08;102371.25;;;18.29;100.00
8569;BME280;4322;51.104;-4.162;2022-09-03T04:04:36;102368.59;;;18.29;100.00
8569;BME280;4322;51.104;-4.162;2022-09-03T04:07:04;102366.78;;;18.29;100.00
8569;BME280;4322;51.104;-4.162;2022-09-03T04:09:32;102362.53;;;18.27;100.00
8569;BME280;4322;51.104;-4.162;2022-09-03T04:12:00;102360.91;;;18.24;100.00
8569;BME280;4322;51.104;-4.162;2022-09-03T04:14:30;102357.53;;;18.22;100.00
8569;BME280;4322;51.104;-4.162;2022-09-03T04:16:59;102355.91;;;18.20;100.00
8569;BME280;4322;51.104;-4.162;2022-09-03T04:19:27;102357.00;;;18.16;100.00
8569;BME280;4322;51.104;-4.162;2022-09-03T04:21:55;102359.81;;;18.13;100.00
8569;BME280;4322;51.104;-4.162;2022-09-03T04:24:23;102350.28;;;18.10;100.00
8569;BME280;4322;51.104;-4.162;2022-09-03T04:26:52;102341.59;;;18.08;100.00
8569;BME280;4322;51.104;-4.162;2022-09-03T04:29:20;102337.28;;;18.07;100.00
8569;BME280;4322;51.104;-4.162;2022-09-03T04:31:50;102338.19;;;18.06;100.00
8569;BME280;4322;51.104;-4.162;2022-09-03T04:34:35;102338.19;;;18.06;100.00
8569;BME280;4322;51.104;-4.162;2022-09-03T04:37:03;102338.38;;;18.03;100.00
8569;BME280;4322;51.104;-4.162;2022-09-03T04:39:31;102330.56;;;18.02;100.00
8569;BME280;4322;51.104;-4.162;2022-09-03T04:41:59;102325.28;;;18.02;100.00
8569;BME280;4322;51.104;-4.162;2022-09-03T04:44:27;102334.88;;;18.03;100.00
8569;BME280;4322;51.104;-4.162;2022-09-03T04:46:57;102326.97;;;18.03;100.00
8569;BME280;4322;51.104;-4.162;2022-09-03T04:49:25;102323.47;;;18.02;100.00
8569;BME280;4322;51.104;-4.162;2022-09-03T04:51:53;102321.69;;;18.03;100.00
8569;BME280;4322;51.104;-4.162;2022-09-03T04:54:21;102316.50;;;18.01;100.00
8569;BME280;4322;51.104;-4.162;2022-09-03T04:56:54;102323.56;;;18.01;100.00
8569;BME280;4322;51.104;-4.162;2022-09-03T04:59:22;102317.44;;;18.00;100.00
8569;BME280;4322;51.104;-4.162;2022-09-03T05:01:50;102314.78;;;18.00;100.00
8569;BME280;4322;51.104;-4.162;2022-09-03T05:04:20;102319.22;;;18.00;100.00
8569;BME280;4322;51.104;-4.162;2022-09-03T05:06:48;102319.22;;;18.00;100.00
8569;BME280;4322;51.104;-4.162;2022-09-03T05:09:16;102311.44;;;17.97;100.00
8569;BME280;4322;51.104;-4.162;2022-09-03T05:11:44;102305.41;;;17.95;100.00
8569;BME280;4322;51.104;-4.162;2022-09-03T05:14:12;102306.38;;;17.94;100.00
8569;BME280;4322;51.104;-4.162;2022-09-03T05:16:40;102315.22;;;17.93;100.00
8569;BME280;4322;51.104;-4.162;2022-09-03T05:19:19;102303.81;;;17.92;100.00
8569;BME280;4322;51.104;-4.162;2022-09-03T05:21:47;102302.19;;;17.90;100.00
8569;BME280;4322;51.104;-4.162;2022-09-03T05:24:15;102293.53;;;17.88;100.00
8569;BME280;4322;51.104;-4.162;2022-09-03T05:26:44;102296.16;;;17.88;100.00
8569;BME280;4322;51.104;-4.162;2022-09-03T05:29:12;102286.53;;;17.87;100.00
8569;BME280;4322;51.104;-4.162;2022-09-03T05:31:41;102283.13;;;17.84;100.00
8569;BME280;4322;51.104;-4.162;2022-09-03T05:34:09;102291.03;;;17.84;100.00
8569;BME280;4322;51.104;-4.162;2022-09-03T05:36:45;102284.91;;;17.84;100.00
8569;BME280;4322;51.104;-4.162;2022-09-03T05:39:15;102286.84;;;17.80;100.00
8569;BME280;4322;51.104;-4.162;2022-09-03T05:41:43;102289.59;;;17.79;100.00
8569;BME280;4322;51.104;-4.162;2022-09-03T05:44:12;102292.41;;;17.76;100.00
8569;BME280;4322;51.104;-4.162;2022-09-03T05:46:40;102284.59;;;17.74;100.00
8569;BME280;4322;51.104;-4.162;2022-09-03T05:49:08;102275.81;;;17.74;100.00
8569;BME280;4322;51.104;-4.162;2022-09-03T05:51:37;102275.88;;;17.72;100.00
8569;BME280;4322;51.104;-4.162;2022-09-03T05:54:07;102271.56;;;17.71;100.00
8569;BME280;4322;51.104;-4.162;2022-09-03T05:56:37;102268.91;;;17.71;100.00
8569;BME280;4322;51.104;-4.162;2022-09-03T05:59:07;102266.28;;;17.71;100.00
8569;BME280;4322;51.104;-4.162;2022-09-03T06:01:37;102261.84;;;17.72;100.00
8569;BME280;4322;51.104;-4.162;2022-09-03T06:04:06;102247.81;;;17.71;100.00
8569;BME280;4322;51.104;-4.162;2022-09-03T06:06:36;102247.81;;;17.71;100.00
8569;BME280;4322;51.104;-4.162;2022-09-03T06:09:09;102239.91;;;17.71;100.00
8569;BME280;4322;51.104;-4.162;2022-09-03T06:11:43;102238.97;;;17.72;100.00
8569;BME280;4322;51.104;-4.162;2022-09-03T06:14:12;102235.41;;;17.73;100.00
8569;BME280;4322;51.104;-4.162;2022-09-03T06:16:42;102230.13;;;17.73;100.00
8569;BME280;4322;51.104;-4.162;2022-09-03T06:19:12;102238.03;;;17.73;100.00
8569;BME280;4322;51.104;-4.162;2022-09-03T06:21:42;102240.66;;;17.73;100.00
8569;BME280;4322;51.104;-4.162;2022-09-03T06:24:13;102238.03;;;17.73;100.00
8569;BME280;4322;51.104;-4.162;2022-09-03T06:26:42;102231.84;;;17.74;100.00
8569;BME280;4322;51.104;-4.162;2022-09-03T06:29:11;102229.19;;;17.74;100.00
8569;BME280;4322;51.104;-4.162;2022-09-03T06:31:39;102226.56;;;17.74;100.00
8569;BME280;4322;51.104;-4.162;2022-09-03T06:34:08;102222.97;;;17.75;100.00
8569;BME280;4322;51.104;-4.162;2022-09-03T06:36:38;102224.69;;;17.76;100.00
8569;BME280;4322;51.104;-4.162;2022-09-03T06:39:06;102218.44;;;17.77;100.00
8569;BME280;4322;51.104;-4.162;2022-09-03T06:41:36;102208.69;;;17.79;100.00
8569;BME280;4322;51.104;-4.162;2022-09-03T06:44:07;102214.63;;;17.83;100.00
8569;BME280;4322;51.104;-4.162;2022-09-03T06:46:38;102212.78;;;17.85;100.00
8569;BME280;4322;51.104;-4.162;2022-09-03T06:49:08;102217.88;;;17.88;100.00
8569;BME280;4322;51.104;-4.162;2022-09-03T06:51:37;102213.44;;;17.89;100.00
8569;BME280;4322;51.104;-4.162;2022-09-03T06:54:07;102211.56;;;17.91;100.00
8569;BME280;4322;51.104;-4.162;2022-09-03T06:56:39;102214.22;;;17.91;100.00
8569;BME280;4322;51.104;-4.162;2022-09-03T06:59:09;102216.75;;;17.92;100.00
8569;BME280;4322;51.104;-4.162;2022-09-03T07:01:38;102225.53;;;17.93;100.00
8569;BME280;4322;51.104;-4.162;2022-09-03T07:04:11;102221.09;;;17.93;100.00
8569;BME280;4322;51.104;-4.162;2022-09-03T07:06:40;102221.09;;;17.93;100.00
8569;BME280;4322;51.104;-4.162;2022-09-03T07:09:11;102214.22;;;17.91;100.00
8569;BME280;4322;51.104;-4.162;2022-09-03T07:11:40;102218.53;;;17.92;100.00
8569;BME280;4322;51.104;-4.162;2022-09-03T07:14:15;102216.00;;;17.90;100.00
8569;BME280;4322;51.104;-4.162;2022-09-03T07:16:43;102205.50;;;17.89;100.00
8569;BME280;4322;51.104;-4.162;2022-09-03T07:19:11;102212.50;;;17.90;100.00
8569;BME280;4322;51.104;-4.162;2022-09-03T07:21:40;102213.25;;;17.92;100.00
8569;BME280;4322;51.104;-4.162;2022-09-03T07:24:15;102220.06;;;17.96;100.00
8569;BME280;4322;51.104;-4.162;2022-09-03T07:26:45;102216.41;;;17.98;100.00
8569;BME280;4322;51.104;-4.162;2022-09-03T07:29:15;102218.03;;;18.01;100.00
8569;BME280;4322;51.104;-4.162;2022-09-03T07:31:48;102218.03;;;18.01;100.00
8569;BME280;4322;51.104;-4.162;2022-09-03T07:34:19;102226.84;;;18.00;100.00
8569;BME280;4322;51.104;-4.162;2022-09-03T07:36:51;102226.84;;;18.00;100.00
8569;BME280;4322;51.104;-4.162;2022-09-03T07:39:19;102219.91;;;17.99;100.00
8569;BME280;4322;51.104;-4.162;2022-09-03T07:41:49;102226.84;;;18.00;100.00
8569;BME280;4322;51.104;-4.162;2022-09-03T07:44:18;102239.03;;;18.02;100.00
8569;BME280;4322;51.104;-4.162;2022-09-03T07:46:47;102228.47;;;18.02;100.00
8569;BME280;4322;51.104;-4.162;2022-09-03T07:49:18;102231.78;;;18.06;100.00
8569;BME280;4322;51.104;-4.162;2022-09-03T07:51:47;102231.63;;;18.09;100.00
8569;BME280;4322;51.104;-4.162;2022-09-03T07:54:18;102234.25;;;18.09;100.00
8569;BME280;4322;51.104;-4.162;2022-09-03T07:56:48;102240.28;;;18.11;100.00
8569;BME280;4322;51.104;-4.162;2022-09-03T07:59:16;102244.47;;;18.15;100.00
8569;BME280;4322;51.104;-4.162;2022-09-03T08:01:45;102244.38;;;18.16;100.00
8569;BME280;4322;51.104;-4.162;2022-09-03T08:04:14;102251.25;;;18.19;100.00
8569;BME280;4322;51.104;-4.162;2022-09-03T08:06:42;102254.75;;;18.19;100.00
8569;BME280;4322;51.104;-4.162;2022-09-03T08:09:11;102253.72;;;18.22;100.00
8569;BME280;4322;51.104;-4.162;2022-09-03T08:11:41;102252.81;;;18.23;100.00
8569;BME280;4322;51.104;-4.162;2022-09-03T08:14:13;102257.13;;;18.24;100.00
8569;BME280;4322;51.104;-4.162;2022-09-03T08:16:44;102259.69;;;18.25;100.00
8569;BME280;4322;51.104;-4.162;2022-09-03T08:19:13;102267.34;;;18.30;100.00
8569;BME280;4322;51.104;-4.162;2022-09-03T08:21:41;102265.66;;;18.29;100.00
8569;BME280;4322;51.104;-4.162;2022-09-03T08:24:10;102263.78;;;18.31;100.00
8569;BME280;4322;51.104;-4.162;2022-09-03T08:26:40;102262.75;;;18.33;100.00
8569;BME280;4322;51.104;-4.162;2022-09-03T08:29:18;102257.28;;;18.36;100.00
8569;BME280;4322;51.104;-4.162;2022-09-03T08:31:47;102264.94;;;18.41;100.00
8569;BME280;4322;51.104;-4.162;2022-09-03T08:34:15;102257.75;;;18.43;100.00
8569;BME280;4322;51.104;-4.162;2022-09-03T08:36:43;102255.81;;;18.47;100.00
8569;BME280;4322;51.104;-4.162;2022-09-03T08:39:12;102250.28;;;18.51;100.00
8569;BME280;4322;51.104;-4.162;2022-09-03T08:42:08;102243.91;;;18.55;100.00
8569;BME280;4322;51.104;-4.162;2022-09-03T08:44:45;102240.13;;;18.59;100.00
8569;BME280;4322;51.104;-4.162;2022-09-03T08:47:20;102234.66;;;18.62;100.00
8569;BME280;4322;51.104;-4.162;2022-09-03T08:49:51;102223.91;;;18.65;100.00
8569;BME280;4322;51.104;-4.162;2022-09-03T08:52:29;102214.97;;;18.68;100.00
8569;BME280;4322;51.104;-4.162;2022-09-03T08:55:03;102216.56;;;18.70;100.00
8569;BME280;4322;51.104;-4.162;2022-09-03T08:57:41;102207.53;;;18.74;100.00
8569;BME280;4322;51.104;-4.162;2022-09-03T09:00:12;102206.13;;;18.83;100.00
8569;BME280;4322;51.104;-4.162;2022-09-03T09:02:51;102198.59;;;18.91;100.00
8569;BME280;4322;51.104;-4.162;2022-09-03T09:05:24;102186.69;;;18.98;100.00
8569;BME280;4322;51.104;-4.162;2022-09-03T09:08:03;102171.88;;;18.95;100.00
8569;BME280;4322;51.104;-4.162;2022-09-03T09:10:40;102155.25;;;18.93;100.00
8569;BME280;4322;51.104;-4.162;2022-09-03T09:13:25;102155.16;;;18.95;100.00
8569;BME280;4322;51.104;-4.162;2022-09-03T09:16:02;102159.59;;;18.94;100.00
8569;BME280;4322;51.104;-4.162;2022-09-03T09:18:45;102160.00;;;18.88;100.00
8569;BME280;4322;51.104;-4.162;2022-09-03T09:21:19;102152.91;;;18.75;100.00
8569;BME280;4322;51.104;-4.162;2022-09-03T09:23:54;102148.28;;;18.64;100.00
8569;BME280;4322;51.104;-4.162;2022-09-03T09:26:24;102156.00;;;18.53;100.00
8569;BME280;4322;51.104;-4.162;2022-09-03T09:28:57;102147.84;;;18.42;100.00
8569;BME280;4322;51.104;-4.162;2022-09-03T09:31:28;102141.13;;;18.36;100.00
8569;BME280;4322;51.104;-4.162;2022-09-03T09:34:01;102144.03;;;18.32;100.00
8569;BME280;4322;51.104;-4.162;2022-09-03T09:36:44;102152.91;;;18.31;100.00
8569;BME280;4322;51.104;-4.162;2022-09-03T09:39:14;102149.50;;;18.29;100.00
8569;BME280;4322;51.104;-4.162;2022-09-03T09:41:55;102151.19;;;18.30;100.00
8569;BME280;4322;51.104;-4.162;2022-09-03T09:44:25;102147.63;;;18.31;100.00
8569;BME280;4322;51.104;-4.162;2022-09-03T09:47:03;102147.53;;;18.32;100.00
8569;BME280;4322;51.104;-4.162;2022-09-03T09:49:36;102144.63;;;18.37;100.00
8569;BME280;4322;51.104;-4.162;2022-09-03T09:52:07;102145.84;;;18.45;100.00
8569;BME280;4322;51.104;-4.162;2022-09-03T09:54:37;102142.41;;;18.59;100.00
8569;BME280;4322;51.104;-4.162;2022-09-03T09:57:12;102143.47;;;18.71;100.00
8569;BME280;4322;51.104;-4.162;2022-09-03T09:59:44;102135.72;;;18.82;100.00
8569;BME280;4322;51.104;-4.162;2022-09-03T10:02:19;102136.94;;;18.90;100.00
8569;BME280;4322;51.104;-4.162;2022-09-03T10:05:11;102122.31;;;18.99;100.00
8569;BME280;4322;51.104;-4.162;2022-09-03T10:07:40;102123.31;;;19.11;100.00
8569;BME280;4322;51.104;-4.162;2022-09-03T10:10:15;102108.03;;;19.16;100.00
8569;BME280;4322;51.104;-4.162;2022-09-03T10:12:49;102098.31;;;19.16;100.00
8569;BME280;4322;51.104;-4.162;2022-09-03T10:15:22;102085.56;;;19.23;100.00
8569;BME280;4322;51.104;-4.162;2022-09-03T10:18:01;102081.00;;;19.39;100.00
8569;BME280;4322;51.104;-4.162;2022-09-03T10:20:34;102049.00;;;19.56;100.00
8569;BME280;4322;51.104;-4.162;2022-09-03T10:23:14;102028.00;;;19.80;100.00
8569;BME280;4322;51.104;-4.162;2022-09-03T10:25:54;102005.28;;;20.02;100.00
8569;BME280;4322;51.104;-4.162;2022-09-03T10:28:30;101975.31;;;20.27;100.00
8569;BME280;4322;51.104;-4.162;2022-09-03T10:31:24;101954.63;;;20.45;100.00
8569;BME280;4322;51.104;-4.162;2022-09-03T10:34:02;101901.28;;;20.49;100.00
8569;BME280;4322;51.104;-4.162;2022-09-03T10:36:36;101882.31;;;20.55;100.00
8569;BME280;4322;51.104;-4.162;2022-09-03T10:39:13;101854.53;;;20.61;100.00
8569;BME280;4322;51.104;-4.162;2022-09-03T10:41:53;101814.78;;;20.61;100.00
8569;BME280;4322;51.104;-4.162;2022-09-03T10:44:39;101787.84;;;20.67;100.00
8569;BME280;4322;51.104;-4.162;2022-09-03T10:47:31;101770.75;;;20.71;100.00
8569;BME280;4322;51.104;-4.162;2022-09-03T10:50:10;101751.25;;;20.72;100.00
8569;BME280;4322;51.104;-4.162;2022-09-03T10:52:57;101718.50;;;20.73;100.00
8569;BME280;4322;51.104;-4.162;2022-09-03T10:55:40;101675.13;;;20.74;100.00
8569;BME280;4322;51.104;-4.162;2022-09-03T10:58:27;101641.75;;;20.71;100.00
8569;BME280;4322;51.104;-4.162;2022-09-03T11:01:10;101620.78;;;20.68;100.00
8569;BME280;4322;51.104;-4.162;2022-09-03T11:03:46;101608.78;;;20.64;100.00
8569;BME280;4322;51.104;-4.162;2022-09-03T11:06:20;101606.97;;;20.65;100.00
8569;BME280;4322;51.104;-4.162;2022-09-03T11:08:55;101592.03;;;20.64;100.00
8569;BME280;4322;51.104;-4.162;2022-09-03T11:11:34;101567.47;;;20.62;100.00
8569;BME280;4322;51.104;-4.162;2022-09-03T11:14:08;101553.75;;;20.57;100.00
8569;BME280;4322;51.104;-4.162;2022-09-03T11:16:40;101523.50;;;20.48;100.00
8569;BME280;4322;51.104;-4.162;2022-09-03T11:19:13;101514.47;;;20.40;100.00
8569;BME280;4322;51.104;-4.162;2022-09-03T11:21:46;101506.41;;;20.41;100.00
8569;BME280;4322;51.104;-4.162;2022-09-03T11:24:19;101505.59;;;20.41;100.00
8569;BME280;4322;51.104;-4.162;2022-09-03T11:26:53;101507.16;;;20.32;100.00
8569;BME280;4322;51.104;-4.162;2022-09-03T11:29:30;101498.06;;;20.24;100.00
8569;BME280;4322;51.104;-4.162;2022-09-03T11:32:07;101494.09;;;20.18;100.00
8569;BME280;4322;51.104;-4.162;2022-09-03T11:34:45;101495.06;;;20.17;100.00
8569;BME280;4322;51.104;-4.162;2022-09-03T11:37:20;101497.88;;;20.27;100.00
8569;BME280;4322;51.104;-4.162;2022-09-03T11:39:54;101499.69;;;20.26;100.00
8569;BME280;4322;51.104;-4.162;2022-09-03T11:42:32;101480.63;;;20.10;100.00
8569;BME280;4322;51.104;-4.162;2022-09-03T11:45:20;101469.78;;;19.91;100.00
8569;BME280;4322;51.104;-4.162;2022-09-03T11:47:49;101471.31;;;19.82;100.00
8569;BME280;4322;51.104;-4.162;2022-09-03T11:50:23;101471.19;;;19.73;100.00
8569;BME280;4322;51.104;-4.162;2022-09-03T11:53:07;101465.38;;;19.68;100.00
8569;BME280;4322;51.104;-4.162;2022-09-03T11:55:50;101471.75;;;19.65;100.00
8569;BME280;4322;51.104;-4.162;2022-09-03T11:58:24;101467.88;;;19.58;100.00
8569;BME280;4322;51.104;-4.162;2022-09-03T12:00:53;101478.47;;;19.58;100.00
8569;BME280;4322;51.104;-4.162;2022-09-03T12:03:24;101488.31;;;19.56;100.00
8569;BME280;4322;51.104;-4.162;2022-09-03T12:06:07;101503.56;;;19.52;100.00
8569;BME280;4322;51.104;-4.162;2022-09-03T12:09:03;101506.22;;;19.52;100.00
8569;BME280;4322;51.104;-4.162;2022-09-03T12:11:44;101518.59;;;19.52;100.00
8569;BME280;4322;51.104;-4.162;2022-09-03T12:14:21;101509.22;;;19.48;100.00
8569;BME280;4322;51.104;-4.162;2022-09-03T12:17:12;101500.78;;;19.43;100.00
8569;BME280;4322;51.104;-4.162;2022-09-03T12:19:49;101493.56;;;19.45;100.00
8569;BME280;4322;51.104;-4.162;2022-09-03T12:22:20;101488.28;;;19.45;100.00
8569;BME280;4322;51.104;-4.162;2022-09-03T12:24:50;101475.06;;;19.45;100.00
8569;BME280;4322;51.104;-4.162;2022-09-03T12:27:20;101460.16;;;19.44;100.00
8569;BME280;4322;51.104;-4.162;2022-09-03T12:29:52;101454.63;;;19.47;100.00
8569;BME280;4322;51.104;-4.162;2022-09-03T12:32:24;101441.31;;;19.48;100.00
8569;BME280;4322;51.104;-4.162;2022-09-03T12:34:53;101429.03;;;19.47;100.00
8569;BME280;4322;51.104;-4.162;2022-09-03T12:37:23;101429.88;;;19.48;100.00
8569;BME280;4322;51.104;-4.162;2022-09-03T12:40:22;101412.09;;;19.50;100.00
8569;BME280;4322;51.104;-4.162;2022-09-03T12:42:52;101378.91;;;19.46;100.00
8569;BME280;4322;51.104;-4.162;2022-09-03T12:45:43;101359.91;;;19.41;100.00
8569;BME280;4322;51.104;-4.162;2022-09-03T12:48:31;101354.09;;;19.36;100.00
8569;BME280;4322;51.104;-4.162;2022-09-03T12:51:01;101359.63;;;19.33;100.00
8569;BME280;4322;51.104;-4.162;2022-09-03T12:53:50;101357.59;;;19.36;100.00
8569;BME280;4322;51.104;-4.162;2022-09-03T12:56:21;101365.44;;;19.38;100.00
8569;BME280;4322;51.104;-4.162;2022-09-03T12:58:54;101363.72;;;19.37;100.00
8569;BME280;4322;51.104;-4.162;2022-09-03T13:01:27;101387.50;;;19.26;100.00
8569;BME280;4322;51.104;-4.162;2022-09-03T13:04:02;101407.91;;;19.24;100.00
8569;BME280;4322;51.104;-4.162;2022-09-03T13:06:44;101430.50;;;19.28;100.00
8569;BME280;4322;51.104;-4.162;2022-09-03T13:09:19;101437.56;;;19.40;100.00
8569;BME280;4322;51.104;-4.162;2022-09-03T13:11:50;101456.09;;;19.51;100.00
8569;BME280;4322;51.104;-4.162;2022-09-03T13:14:21;101464.31;;;19.59;100.00
8569;BME280;4322;51.104;-4.162;2022-09-03T13:16:59;101464.44;;;19.69;100.00
8569;BME280;4322;51.104;-4.162;2022-09-03T13:19:37;101475.63;;;19.72;100.00
8569;BME280;4322;51.104;-4.162;2022-09-03T13:22:15;101473.09;;;19.71;100.00